Didsbury, Canada
Current Conditions -  °F | °C
As of 10:00 PM on Thursday 30 Oct 2014 (Local Time) from CYQF Reporting Station
Overcast Overcast  
Wind Chill: 27°   Ceiling: 600
Heat Index: 37°   Visibility: 8mi
Dew Point: 36°   Wind: 18mph
Humidity: 93%   Direction: 160°SSE
Pressure: 29.88"   Gusts: NA
Location:  51.67°N, 114.13°W
Report Text: CYQF 310400Z 16016KT 8SM OVC006 03/02 A2988 RMK SC8 BR SLP159
Loading
Personal Weather Stations






























Interactive Weather Map
Tropical Storm Tracking
New forecast layout! Learn more

10-Day Weather Forecast

Advertisements
Track Severe Weather on mobile